sensor_id;sensor_type;location;lat;lon;timestamp;temperature;humidity
13433;DHT22;6789;47.678;9.158;2023-06-24T00:01:08;17.90;99.90
13433;DHT22;6789;47.678;9.158;2023-06-24T00:06:22;17.90;99.90
13433;DHT22;6789;47.678;9.158;2023-06-24T00:11:17;17.80;99.90
13433;DHT22;6789;47.678;9.158;2023-06-24T00:16:11;17.80;99.90
13433;DHT22;6789;47.678;9.158;2023-06-24T00:21:03;17.70;99.90
13433;DHT22;6789;47.678;9.158;2023-06-24T00:25:57;17.60;99.90
13433;DHT22;6789;47.678;9.158;2023-06-24T00:37:52;17.40;99.90
13433;DHT22;6789;47.678;9.158;2023-06-24T00:43:13;17.40;99.90
13433;DHT22;6789;47.678;9.158;2023-06-24T00:48:24;17.30;99.90
13433;DHT22;6789;47.678;9.158;2023-06-24T00:53:19;17.30;99.90
13433;DHT22;6789;47.678;9.158;2023-06-24T00:58:16;17.20;99.90
13433;DHT22;6789;47.678;9.158;2023-06-24T01:03:12;17.20;99.90
13433;DHT22;6789;47.678;9.158;2023-06-24T01:08:07;17.10;99.90
13433;DHT22;6789;47.678;9.158;2023-06-24T01:13:00;17.20;99.90
13433;DHT22;6789;47.678;9.158;2023-06-24T01:28:19;17.10;99.90
13433;DHT22;6789;47.678;9.158;2023-06-24T01:33:15;17.20;99.90
13433;DHT22;6789;47.678;9.158;2023-06-24T01:38:27;17.00;99.90
13433;DHT22;6789;47.678;9.158;2023-06-24T01:43:27;16.80;99.90
13433;DHT22;6789;47.678;9.158;2023-06-24T01:53:18;16.60;99.90
13433;DHT22;6789;47.678;9.158;2023-06-24T01:58:12;16.50;99.90
13433;DHT22;6789;47.678;9.158;2023-06-24T02:03:07;16.40;99.90
13433;DHT22;6789;47.678;9.158;2023-06-24T02:08:01;16.30;99.90
13433;DHT22;6789;47.678;9.158;2023-06-24T02:12:55;16.30;99.90
13433;DHT22;6789;47.678;9.158;2023-06-24T02:17:50;16.20;99.90
13433;DHT22;6789;47.678;9.158;2023-06-24T02:22:48;16.10;99.90
13433;DHT22;6789;47.678;9.158;2023-06-24T02:27:40;16.00;99.90
13433;DHT22;6789;47.678;9.158;2023-06-24T02:32:33;16.00;99.90
13433;DHT22;6789;47.678;9.158;2023-06-24T02:37:27;16.00;99.90
13433;DHT22;6789;47.678;9.158;2023-06-24T02:42:19;15.90;99.90
13433;DHT22;6789;47.678;9.158;2023-06-24T02:47:12;15.80;99.90
13433;DHT22;6789;47.678;9.158;2023-06-24T02:52:07;15.80;99.90
13433;DHT22;6789;47.678;9.158;2023-06-24T02:56:59;15.90;99.90
13433;DHT22;6789;47.678;9.158;2023-06-24T03:02:20;15.80;99.90
13433;DHT22;6789;47.678;9.158;2023-06-24T03:07:13;15.80;99.90
13433;DHT22;6789;47.678;9.158;2023-06-24T03:12:06;15.70;99.90
13433;DHT22;6789;47.678;9.158;2023-06-24T03:16:58;15.50;99.90
13433;DHT22;6789;47.678;9.158;2023-06-24T03:21:50;15.50;99.90
13433;DHT22;6789;47.678;9.158;2023-06-24T03:26:43;15.40;99.90
13433;DHT22;6789;47.678;9.158;2023-06-24T03:31:35;15.40;99.90
13433;DHT22;6789;47.678;9.158;2023-06-24T03:36:26;15.40;99.90
13433;DHT22;6789;47.678;9.158;2023-06-24T03:41:18;15.40;99.90
13433;DHT22;6789;47.678;9.158;2023-06-24T03:46:11;15.40;99.90
13433;DHT22;6789;47.678;9.158;2023-06-24T03:51:03;15.50;99.90
13433;DHT22;6789;47.678;9.158;2023-06-24T03:55:55;15.60;99.90
13433;DHT22;6789;47.678;9.158;2023-06-24T04:00:47;16.00;99.90
13433;DHT22;6789;47.678;9.158;2023-06-24T04:05:40;16.60;99.90
13433;DHT22;6789;47.678;9.158;2023-06-24T04:10:32;17.10;99.90
13433;DHT22;6789;47.678;9.158;2023-06-24T04:15:24;17.70;99.90
13433;DHT22;6789;47.678;9.158;2023-06-24T04:20:16;18.40;99.90
13433;DHT22;6789;47.678;9.158;2023-06-24T04:25:08;19.10;99.90
13433;DHT22;6789;47.678;9.158;2023-06-24T04:30:01;19.70;99.90
13433;DHT22;6789;47.678;9.158;2023-06-24T04:34:53;19.80;99.90
13433;DHT22;6789;47.678;9.158;2023-06-24T04:39:45;20.40;99.90
13433;DHT22;6789;47.678;9.158;2023-06-24T04:44:37;21.20;99.90
13433;DHT22;6789;47.678;9.158;2023-06-24T04:49:29;22.00;99.90
13433;DHT22;6789;47.678;9.158;2023-06-24T04:54:21;23.40;99.90
13433;DHT22;6789;47.678;9.158;2023-06-24T04:59:12;24.20;99.90
13433;DHT22;6789;47.678;9.158;2023-06-24T05:04:04;24.70;99.90
13433;DHT22;6789;47.678;9.158;2023-06-24T05:08:56;25.30;99.90
13433;DHT22;6789;47.678;9.158;2023-06-24T05:13:48;25.30;99.90
13433;DHT22;6789;47.678;9.158;2023-06-24T05:18:40;25.70;99.90
13433;DHT22;6789;47.678;9.158;2023-06-24T05:23:31;26.20;99.90
13433;DHT22;6789;47.678;9.158;2023-06-24T05:28:23;25.80;99.90
13433;DHT22;6789;47.678;9.158;2023-06-24T05:33:29;26.70;99.90
13433;DHT22;6789;47.678;9.158;2023-06-24T05:38:21;26.90;99.90
13433;DHT22;6789;47.678;9.158;2023-06-24T05:43:14;26.50;99.90
13433;DHT22;6789;47.678;9.158;2023-06-24T05:48:06;27.20;99.90
13433;DHT22;6789;47.678;9.158;2023-06-24T05:53:11;27.10;99.90
13433;DHT22;6789;47.678;9.158;2023-06-24T05:58:17;27.80;99.90
13433;DHT22;6789;47.678;9.158;2023-06-24T06:03:25;27.60;99.90
13433;DHT22;6789;47.678;9.158;2023-06-24T06:08:31;27.10;99.90
13433;DHT22;6789;47.678;9.158;2023-06-24T06:13:22;26.30;99.90
13433;DHT22;6789;47.678;9.158;2023-06-24T06:18:20;26.60;99.90
13433;DHT22;6789;47.678;9.158;2023-06-24T06:23:26;26.30;99.90
13433;DHT22;6789;47.678;9.158;2023-06-24T06:28:33;25.50;99.90
13433;DHT22;6789;47.678;9.158;2023-06-24T06:33:25;24.20;99.90
13433;DHT22;6789;47.678;9.158;2023-06-24T06:38:39;23.90;99.90
13433;DHT22;6789;47.678;9.158;2023-06-24T06:43:57;24.00;99.90
13433;DHT22;6789;47.678;9.158;2023-06-24T06:49:02;22.80;99.90
13433;DHT22;6789;47.678;9.158;2023-06-24T06:54:08;23.10;99.90
13433;DHT22;6789;47.678;9.158;2023-06-24T06:59:07;23.10;99.90
13433;DHT22;6789;47.678;9.158;2023-06-24T07:04:03;23.10;99.90
13433;DHT22;6789;47.678;9.158;2023-06-24T07:15:36;24.10;99.90
13433;DHT22;6789;47.678;9.158;2023-06-24T07:20:29;23.60;99.90
13433;DHT22;6789;47.678;9.158;2023-06-24T07:25:36;23.20;99.90
13433;DHT22;6789;47.678;9.158;2023-06-24T07:30:28;22.90;99.90
13433;DHT22;6789;47.678;9.158;2023-06-24T07:35:20;23.10;99.90
13433;DHT22;6789;47.678;9.158;2023-06-24T07:40:12;23.60;99.90
13433;DHT22;6789;47.678;9.158;2023-06-24T07:45:18;22.90;99.90
13433;DHT22;6789;47.678;9.158;2023-06-24T07:50:10;22.80;99.90
13433;DHT22;6789;47.678;9.158;2023-06-24T07:55:17;23.10;99.90
13433;DHT22;6789;47.678;9.158;2023-06-24T08:00:23;22.90;99.90
13433;DHT22;6789;47.678;9.158;2023-06-24T08:05:29;23.00;99.90
13433;DHT22;6789;47.678;9.158;2023-06-24T08:10:21;23.10;99.90
13433;DHT22;6789;47.678;9.158;2023-06-24T08:15:27;23.20;99.90
13433;DHT22;6789;47.678;9.158;2023-06-24T08:20:34;24.00;99.90
13433;DHT22;6789;47.678;9.158;2023-06-24T08:25:41;24.30;99.90
13433;DHT22;6789;47.678;9.158;2023-06-24T08:30:48;24.90;99.90
13433;DHT22;6789;47.678;9.158;2023-06-24T08:35:40;24.30;99.90
13433;DHT22;6789;47.678;9.158;2023-06-24T08:40:32;23.80;99.90
13433;DHT22;6789;47.678;9.158;2023-06-24T08:45:38;23.80;99.90
13433;DHT22;6789;47.678;9.158;2023-06-24T08:50:50;23.90;99.90
13433;DHT22;6789;47.678;9.158;2023-06-24T08:56:00;23.60;99.90
13433;DHT22;6789;47.678;9.158;2023-06-24T09:01:38;23.80;99.90
13433;DHT22;6789;47.678;9.158;2023-06-24T09:06:31;23.50;99.90
13433;DHT22;6789;47.678;9.158;2023-06-24T09:11:43;24.00;99.90
13433;DHT22;6789;47.678;9.158;2023-06-24T09:17:19;24.40;99.90
13433;DHT22;6789;47.678;9.158;2023-06-24T09:22:28;25.00;99.90
13433;DHT22;6789;47.678;9.158;2023-06-24T09:27:36;24.50;99.90
13433;DHT22;6789;47.678;9.158;2023-06-24T09:32:31;25.10;99.90
13433;DHT22;6789;47.678;9.158;2023-06-24T09:37:41;25.10;99.90
13433;DHT22;6789;47.678;9.158;2023-06-24T09:42:58;25.40;99.90
13433;DHT22;6789;47.678;9.158;2023-06-24T09:48:12;24.90;99.90
13433;DHT22;6789;47.678;9.158;2023-06-24T09:53:34;24.70;99.90
13433;DHT22;6789;47.678;9.158;2023-06-24T09:58:41;25.00;99.90
13433;DHT22;6789;47.678;9.158;2023-06-24T10:03:50;25.60;99.90
13433;DHT22;6789;47.678;9.158;2023-06-24T10:09:25;25.80;99.90
13433;DHT22;6789;47.678;9.158;2023-06-24T10:14:31;25.40;99.90
13433;DHT22;6789;47.678;9.158;2023-06-24T10:19:41;25.20;99.90
13433;DHT22;6789;47.678;9.158;2023-06-24T10:24:59;25.50;99.90
13433;DHT22;6789;47.678;9.158;2023-06-24T10:30:07;25.60;99.90
13433;DHT22;6789;47.678;9.158;2023-06-24T10:35:28;25.10;99.90
13433;DHT22;6789;47.678;9.158;2023-06-24T10:40:41;25.40;99.90
13433;DHT22;6789;47.678;9.158;2023-06-24T10:45:51;25.30;99.90
13433;DHT22;6789;47.678;9.158;2023-06-24T10:56:16;25.60;99.90
13433;DHT22;6789;47.678;9.158;2023-06-24T11:01:27;25.90;99.90
13433;DHT22;6789;47.678;9.158;2023-06-24T11:06:33;25.80;99.90
13433;DHT22;6789;47.678;9.158;2023-06-24T11:12:09;25.50;99.90
13433;DHT22;6789;47.678;9.158;2023-06-24T11:17:30;24.80;99.90
13433;DHT22;6789;47.678;9.158;2023-06-24T11:22:42;25.20;99.90
13433;DHT22;6789;47.678;9.158;2023-06-24T11:28:13;25.30;99.90
13433;DHT22;6789;47.678;9.158;2023-06-24T11:33:51;25.40;99.90
13433;DHT22;6789;47.678;9.158;2023-06-24T11:38:58;25.60;99.90
13433;DHT22;6789;47.678;9.158;2023-06-24T11:43:50;25.40;99.90
13433;DHT22;6789;47.678;9.158;2023-06-24T11:49:07;25.70;99.90
13433;DHT22;6789;47.678;9.158;2023-06-24T11:54:40;25.20;99.90
13433;DHT22;6789;47.678;9.158;2023-06-24T11:59:51;25.20;99.90
13433;DHT22;6789;47.678;9.158;2023-06-24T12:05:10;25.70;99.90
13433;DHT22;6789;47.678;9.158;2023-06-24T12:10:30;25.90;99.90
13433;DHT22;6789;47.678;9.158;2023-06-24T12:15:52;25.40;99.90
13433;DHT22;6789;47.678;9.158;2023-06-24T12:21:01;25.30;99.90
13433;DHT22;6789;47.678;9.158;2023-06-24T12:26:28;25.60;99.90
13433;DHT22;6789;47.678;9.158;2023-06-24T12:32:01;25.80;99.90
13433;DHT22;6789;47.678;9.158;2023-06-24T12:37:28;25.90;99.90
13433;DHT22;6789;47.678;9.158;2023-06-24T12:42:37;26.00;99.90
13433;DHT22;6789;47.678;9.158;2023-06-24T12:47:44;25.80;99.90
13433;DHT22;6789;47.678;9.158;2023-06-24T12:52:50;26.10;99.90
13433;DHT22;6789;47.678;9.158;2023-06-24T12:57:42;25.60;99.90
13433;DHT22;6789;47.678;9.158;2023-06-24T13:02:49;25.90;99.90
13433;DHT22;6789;47.678;9.158;2023-06-24T13:07:56;25.10;99.90
13433;DHT22;6789;47.678;9.158;2023-06-24T13:13:32;25.80;99.90
13433;DHT22;6789;47.678;9.158;2023-06-24T13:18:39;26.20;99.90
13433;DHT22;6789;47.678;9.158;2023-06-24T13:23:59;26.40;99.90
13433;DHT22;6789;47.678;9.158;2023-06-24T13:29:06;26.20;99.90
13433;DHT22;6789;47.678;9.158;2023-06-24T13:34:13;25.70;99.90
13433;DHT22;6789;47.678;9.158;2023-06-24T13:39:19;25.70;99.90
13433;DHT22;6789;47.678;9.158;2023-06-24T13:44:32;25.80;99.20
13433;DHT22;6789;47.678;9.158;2023-06-24T13:49:53;25.90;99.60
13433;DHT22;6789;47.678;9.158;2023-06-24T13:55:05;26.10;99.40
13433;DHT22;6789;47.678;9.158;2023-06-24T14:00:32;26.30;98.60
13433;DHT22;6789;47.678;9.158;2023-06-24T14:06:08;26.10;99.10
13433;DHT22;6789;47.678;9.158;2023-06-24T14:11:16;26.40;98.50
13433;DHT22;6789;47.678;9.158;2023-06-24T14:16:42;26.30;99.90
13433;DHT22;6789;47.678;9.158;2023-06-24T14:22:01;26.40;96.90
13433;DHT22;6789;47.678;9.158;2023-06-24T14:27:18;26.80;99.00
13433;DHT22;6789;47.678;9.158;2023-06-24T14:32:39;27.20;98.10
13433;DHT22;6789;47.678;9.158;2023-06-24T14:37:45;26.90;98.40
13433;DHT22;6789;47.678;9.158;2023-06-24T14:43:02;26.80;98.40
13433;DHT22;6789;47.678;9.158;2023-06-24T14:48:09;26.30;98.90
13433;DHT22;6789;47.678;9.158;2023-06-24T14:53:32;26.10;99.00
13433;DHT22;6789;47.678;9.158;2023-06-24T14:58:57;26.60;98.80
13433;DHT22;6789;47.678;9.158;2023-06-24T15:04:06;26.50;98.60
13433;DHT22;6789;47.678;9.158;2023-06-24T15:20:13;26.50;97.60
13433;DHT22;6789;47.678;9.158;2023-06-24T15:25:22;26.20;97.60
13433;DHT22;6789;47.678;9.158;2023-06-24T15:30:14;26.30;97.30
13433;DHT22;6789;47.678;9.158;2023-06-24T15:36:10;26.40;97.40
13433;DHT22;6789;47.678;9.158;2023-06-24T15:41:30;26.30;97.10
13433;DHT22;6789;47.678;9.158;2023-06-24T15:47:05;26.40;97.70
13433;DHT22;6789;47.678;9.158;2023-06-24T15:52:36;26.30;97.60
13433;DHT22;6789;47.678;9.158;2023-06-24T15:57:43;26.20;97.50
13433;DHT22;6789;47.678;9.158;2023-06-24T16:02:49;26.20;97.90
13433;DHT22;6789;47.678;9.158;2023-06-24T16:07:56;26.10;98.30
13433;DHT22;6789;47.678;9.158;2023-06-24T16:13:02;26.10;97.80
13433;DHT22;6789;47.678;9.158;2023-06-24T16:18:09;26.10;98.50
13433;DHT22;6789;47.678;9.158;2023-06-24T16:23:18;25.90;98.40
13433;DHT22;6789;47.678;9.158;2023-06-24T16:28:27;26.00;97.90
13433;DHT22;6789;47.678;9.158;2023-06-24T16:33:38;26.00;97.10
13433;DHT22;6789;47.678;9.158;2023-06-24T16:38:44;26.00;98.30
13433;DHT22;6789;47.678;9.158;2023-06-24T16:43:36;26.00;97.50
13433;DHT22;6789;47.678;9.158;2023-06-24T16:48:41;26.00;97.70
13433;DHT22;6789;47.678;9.158;2023-06-24T16:53:47;25.90;97.70
13433;DHT22;6789;47.678;9.158;2023-06-24T16:58:53;26.10;98.70
13433;DHT22;6789;47.678;9.158;2023-06-24T17:03:59;26.00;99.30
13433;DHT22;6789;47.678;9.158;2023-06-24T17:09:09;25.90;98.80
13433;DHT22;6789;47.678;9.158;2023-06-24T17:14:25;26.10;98.90
13433;DHT22;6789;47.678;9.158;2023-06-24T17:19:32;25.90;98.50
13433;DHT22;6789;47.678;9.158;2023-06-24T17:24:39;25.80;99.40
13433;DHT22;6789;47.678;9.158;2023-06-24T17:29:31;25.80;99.40
13433;DHT22;6789;47.678;9.158;2023-06-24T17:34:22;25.60;98.00
13433;DHT22;6789;47.678;9.158;2023-06-24T17:39:14;25.60;98.10
13433;DHT22;6789;47.678;9.158;2023-06-24T17:44:36;25.50;98.20
13433;DHT22;6789;47.678;9.158;2023-06-24T17:49:46;25.50;98.50
13433;DHT22;6789;47.678;9.158;2023-06-24T17:55:13;25.50;98.20
13433;DHT22;6789;47.678;9.158;2023-06-24T18:00:20;25.40;98.80
13433;DHT22;6789;47.678;9.158;2023-06-24T18:05:26;25.20;99.60
13433;DHT22;6789;47.678;9.158;2023-06-24T18:10:43;25.20;99.50
13433;DHT22;6789;47.678;9.158;2023-06-24T18:15:49;25.10;99.40
13433;DHT22;6789;47.678;9.158;2023-06-24T18:20:42;24.90;99.50
13433;DHT22;6789;47.678;9.158;2023-06-24T18:25:48;24.80;99.90
13433;DHT22;6789;47.678;9.158;2023-06-24T18:30:55;24.70;99.90
13433;DHT22;6789;47.678;9.158;2023-06-24T18:36:03;24.70;99.90
13433;DHT22;6789;47.678;9.158;2023-06-24T18:41:09;24.70;99.90
13433;DHT22;6789;47.678;9.158;2023-06-24T18:46:02;24.70;99.90
13433;DHT22;6789;47.678;9.158;2023-06-24T18:50:54;24.60;99.90
13433;DHT22;6789;47.678;9.158;2023-06-24T18:55:45;24.70;99.90
13433;DHT22;6789;47.678;9.158;2023-06-24T19:00:37;25.50;99.90
13433;DHT22;6789;47.678;9.158;2023-06-24T19:06:02;25.40;99.90
13433;DHT22;6789;47.678;9.158;2023-06-24T19:11:03;25.30;99.90
13433;DHT22;6789;47.678;9.158;2023-06-24T19:15:57;25.30;99.90
13433;DHT22;6789;47.678;9.158;2023-06-24T19:21:02;24.70;99.90
13433;DHT22;6789;47.678;9.158;2023-06-24T19:26:12;24.30;99.90
13433;DHT22;6789;47.678;9.158;2023-06-24T19:31:04;23.90;99.90
13433;DHT22;6789;47.678;9.158;2023-06-24T19:36:09;23.60;99.90
13433;DHT22;6789;47.678;9.158;2023-06-24T19:41:17;23.20;99.90
13433;DHT22;6789;47.678;9.158;2023-06-24T19:46:23;23.10;99.90
13433;DHT22;6789;47.678;9.158;2023-06-24T19:51:30;22.80;99.90
13433;DHT22;6789;47.678;9.158;2023-06-24T19:56:22;22.70;99.90
13433;DHT22;6789;47.678;9.158;2023-06-24T20:01:28;22.60;99.90
13433;DHT22;6789;47.678;9.158;2023-06-24T20:06:22;22.60;99.90
13433;DHT22;6789;47.678;9.158;2023-06-24T20:11:28;22.50;99.90
13433;DHT22;6789;47.678;9.158;2023-06-24T20:16:54;22.40;99.90
13433;DHT22;6789;47.678;9.158;2023-06-24T20:22:10;22.30;99.90
13433;DHT22;6789;47.678;9.158;2023-06-24T20:27:29;22.20;99.90
13433;DHT22;6789;47.678;9.158;2023-06-24T20:32:48;22.10;99.90
13433;DHT22;6789;47.678;9.158;2023-06-24T20:37:54;22.10;99.90
13433;DHT22;6789;47.678;9.158;2023-06-24T20:42:50;22.00;99.90
13433;DHT22;6789;47.678;9.158;2023-06-24T20:47:41;21.90;99.90
13433;DHT22;6789;47.678;9.158;2023-06-24T20:52:33;21.80;99.90
13433;DHT22;6789;47.678;9.158;2023-06-24T20:57:47;21.70;99.90
13433;DHT22;6789;47.678;9.158;2023-06-24T21:03:24;21.60;99.90
13433;DHT22;6789;47.678;9.158;2023-06-24T21:08:16;21.40;99.90
13433;DHT22;6789;47.678;9.158;2023-06-24T21:13:22;21.30;99.90
13433;DHT22;6789;47.678;9.158;2023-06-24T21:18:13;21.30;99.90
13433;DHT22;6789;47.678;9.158;2023-06-24T21:23:05;21.20;99.90
13433;DHT22;6789;47.678;9.158;2023-06-24T21:28:17;21.20;99.90
13433;DHT22;6789;47.678;9.158;2023-06-24T21:33:24;21.10;99.90
13433;DHT22;6789;47.678;9.158;2023-06-24T21:38:41;21.10;99.90
13433;DHT22;6789;47.678;9.158;2023-06-24T21:43:33;21.00;99.90
13433;DHT22;6789;47.678;9.158;2023-06-24T21:48:28;20.90;99.90
13433;DHT22;6789;47.678;9.158;2023-06-24T21:53:34;20.80;99.90
13433;DHT22;6789;47.678;9.158;2023-06-24T21:58:26;20.80;99.90
13433;DHT22;6789;47.678;9.158;2023-06-24T22:03:33;20.80;99.90
13433;DHT22;6789;47.678;9.158;2023-06-24T22:08:40;20.70;99.90
13433;DHT22;6789;47.678;9.158;2023-06-24T22:13:55;20.60;99.90
13433;DHT22;6789;47.678;9.158;2023-06-24T22:19:13;20.50;99.90
13433;DHT22;6789;47.678;9.158;2023-06-24T22:25:06;20.50;99.90
13433;DHT22;6789;47.678;9.158;2023-06-24T22:30:13;20.40;99.90
13433;DHT22;6789;47.678;9.158;2023-06-24T22:35:46;20.30;99.90
13433;DHT22;6789;47.678;9.158;2023-06-24T22:40:55;20.30;99.90
13433;DHT22;6789;47.678;9.158;2023-06-24T22:46:04;20.30;99.90
13433;DHT22;6789;47.678;9.158;2023-06-24T22:51:12;20.20;99.90
13433;DHT22;6789;47.678;9.158;2023-06-24T22:56:16;20.10;99.90
13433;DHT22;6789;47.678;9.158;2023-06-24T23:01:39;20.00;99.90
13433;DHT22;6789;47.678;9.158;2023-06-24T23:06:32;20.10;99.90
13433;DHT22;6789;47.678;9.158;2023-06-24T23:11:38;20.10;99.90
13433;DHT22;6789;47.678;9.158;2023-06-24T23:16:45;20.00;99.90
13433;DHT22;6789;47.678;9.158;2023-06-24T23:22:07;20.00;99.90
13433;DHT22;6789;47.678;9.158;2023-06-24T23:27:27;19.90;99.90
13433;DHT22;6789;47.678;9.158;2023-06-24T23:33:15;19.80;99.90
13433;DHT22;6789;47.678;9.158;2023-06-24T23:39:09;19.80;99.90
13433;DHT22;6789;47.678;9.158;2023-06-24T23:44:01;19.80;99.90
13433;DHT22;6789;47.678;9.158;2023-06-24T23:48:54;19.80;99.90
13433;DHT22;6789;47.678;9.158;2023-06-24T23:54:11;19.70;99.90
13433;DHT22;6789;47.678;9.158;2023-06-24T23:59:17;19.70;99.90
